sensor_id;sensor_type;location;lat;lon;timestamp;P1;durP1;ratioP1;P2;durP2;ratioP2
61569;SDS011;47462;59.172;17.196;2022-11-20T00:01:37;1.93;;;1.73;;
61569;SDS011;47462;59.172;17.196;2022-11-20T00:04:03;2.17;;;1.55;;
61569;SDS011;47462;59.172;17.196;2022-11-20T00:06:28;2.05;;;1.85;;
61569;SDS011;47462;59.172;17.196;2022-11-20T00:08:55;2.78;;;2.15;;
61569;SDS011;47462;59.172;17.196;2022-11-20T00:11:23;2.30;;;1.55;;
61569;SDS011;47462;59.172;17.196;2022-11-20T00:13:51;1.70;;;1.55;;
61569;SDS011;47462;59.172;17.196;2022-11-20T00:16:19;1.50;;;1.40;;
61569;SDS011;47462;59.172;17.196;2022-11-20T00:18:47;2.30;;;1.70;;
61569;SDS011;47462;59.172;17.196;2022-11-20T00:23:50;1.48;;;1.20;;
61569;SDS011;47462;59.172;17.196;2022-11-20T00:26:17;1.95;;;1.52;;
61569;SDS011;47462;59.172;17.196;2022-11-20T00:28:44;2.00;;;1.40;;
61569;SDS011;47462;59.172;17.196;2022-11-20T00:31:15;2.58;;;1.58;;
61569;SDS011;47462;59.172;17.196;2022-11-20T00:36:08;2.05;;;1.67;;
61569;SDS011;47462;59.172;17.196;2022-11-20T00:38:35;2.45;;;1.58;;
61569;SDS011;47462;59.172;17.196;2022-11-20T00:41:02;2.23;;;1.90;;
61569;SDS011;47462;59.172;17.196;2022-11-20T00:43:29;3.60;;;2.05;;
61569;SDS011;47462;59.172;17.196;2022-11-20T00:46:04;2.45;;;1.90;;
61569;SDS011;47462;59.172;17.196;2022-11-20T00:48:32;3.20;;;1.95;;
61569;SDS011;47462;59.172;17.196;2022-11-20T00:50:58;2.30;;;2.05;;
61569;SDS011;47462;59.172;17.196;2022-11-20T00:53:24;2.17;;;1.77;;
61569;SDS011;47462;59.172;17.196;2022-11-20T00:55:53;2.47;;;1.60;;
61569;SDS011;47462;59.172;17.196;2022-11-20T00:58:23;2.40;;;1.90;;
61569;SDS011;47462;59.172;17.196;2022-11-20T01:00:49;2.85;;;1.65;;
61569;SDS011;47462;59.172;17.196;2022-11-20T01:03:16;3.80;;;2.13;;
61569;SDS011;47462;59.172;17.196;2022-11-20T01:05:42;2.60;;;1.77;;
61569;SDS011;47462;59.172;17.196;2022-11-20T01:08:08;2.03;;;1.85;;
61569;SDS011;47462;59.172;17.196;2022-11-20T01:10:33;2.33;;;1.93;;
61569;SDS011;47462;59.172;17.196;2022-11-20T01:12:58;3.90;;;1.40;;
61569;SDS011;47462;59.172;17.196;2022-11-20T01:15:42;1.65;;;1.52;;
61569;SDS011;47462;59.172;17.196;2022-11-20T01:18:08;2.80;;;1.80;;
61569;SDS011;47462;59.172;17.196;2022-11-20T01:20:36;1.67;;;1.47;;
61569;SDS011;47462;59.172;17.196;2022-11-20T01:23:02;3.25;;;1.67;;
61569;SDS011;47462;59.172;17.196;2022-11-20T01:27:53;3.92;;;1.45;;
61569;SDS011;47462;59.172;17.196;2022-11-20T01:30:19;3.90;;;1.60;;
61569;SDS011;47462;59.172;17.196;2022-11-20T01:32:44;1.93;;;1.57;;
61569;SDS011;47462;59.172;17.196;2022-11-20T01:35:10;2.30;;;1.70;;
61569;SDS011;47462;59.172;17.196;2022-11-20T01:37:35;2.80;;;1.57;;
61569;SDS011;47462;59.172;17.196;2022-11-20T01:40:01;2.23;;;1.50;;
61569;SDS011;47462;59.172;17.196;2022-11-20T01:42:26;2.05;;;1.60;;
61569;SDS011;47462;59.172;17.196;2022-11-20T01:48:14;2.17;;;1.77;;
61569;SDS011;47462;59.172;17.196;2022-11-20T01:50:39;1.65;;;1.42;;
61569;SDS011;47462;59.172;17.196;2022-11-20T01:53:08;2.28;;;1.70;;
61569;SDS011;47462;59.172;17.196;2022-11-20T01:55:39;4.38;;;1.52;;
61569;SDS011;47462;59.172;17.196;2022-11-20T01:58:08;3.15;;;1.60;;
61569;SDS011;47462;59.172;17.196;2022-11-20T02:03:18;2.10;;;1.65;;
61569;SDS011;47462;59.172;17.196;2022-11-20T02:05:46;2.75;;;1.70;;
61569;SDS011;47462;59.172;17.196;2022-11-20T02:08:13;4.25;;;1.73;;
61569;SDS011;47462;59.172;17.196;2022-11-20T02:10:39;2.55;;;1.58;;
61569;SDS011;47462;59.172;17.196;2022-11-20T02:13:04;2.55;;;1.50;;
61569;SDS011;47462;59.172;17.196;2022-11-20T02:15:49;1.65;;;1.30;;
61569;SDS011;47462;59.172;17.196;2022-11-20T02:18:16;2.72;;;1.45;;
61569;SDS011;47462;59.172;17.196;2022-11-20T02:20:44;1.55;;;1.45;;
61569;SDS011;47462;59.172;17.196;2022-11-20T02:26:06;3.35;;;1.52;;
61569;SDS011;47462;59.172;17.196;2022-11-20T02:28:35;1.73;;;1.40;;
61569;SDS011;47462;59.172;17.196;2022-11-20T02:31:01;1.88;;;1.55;;
61569;SDS011;47462;59.172;17.196;2022-11-20T02:33:26;2.20;;;1.33;;
61569;SDS011;47462;59.172;17.196;2022-11-20T02:35:52;1.53;;;1.30;;
61569;SDS011;47462;59.172;17.196;2022-11-20T02:38:17;1.67;;;1.33;;
61569;SDS011;47462;59.172;17.196;2022-11-20T02:40:43;4.13;;;1.38;;
61569;SDS011;47462;59.172;17.196;2022-11-20T02:43:08;1.77;;;1.50;;
61569;SDS011;47462;59.172;17.196;2022-11-20T02:45:34;2.22;;;1.35;;
61569;SDS011;47462;59.172;17.196;2022-11-20T02:47:59;1.70;;;1.35;;
61569;SDS011;47462;59.172;17.196;2022-11-20T02:50:25;3.67;;;1.60;;
61569;SDS011;47462;59.172;17.196;2022-11-20T02:52:50;2.57;;;1.67;;
61569;SDS011;47462;59.172;17.196;2022-11-20T02:55:16;2.70;;;1.63;;
61569;SDS011;47462;59.172;17.196;2022-11-20T02:57:41;2.20;;;1.45;;
61569;SDS011;47462;59.172;17.196;2022-11-20T03:00:07;1.47;;;1.37;;
61569;SDS011;47462;59.172;17.196;2022-11-20T03:02:33;1.67;;;1.30;;
61569;SDS011;47462;59.172;17.196;2022-11-20T03:04:59;2.63;;;1.35;;
61569;SDS011;47462;59.172;17.196;2022-11-20T03:07:24;1.33;;;1.23;;
61569;SDS011;47462;59.172;17.196;2022-11-20T03:09:50;3.03;;;1.58;;
61569;SDS011;47462;59.172;17.196;2022-11-20T03:12:15;2.75;;;1.23;;
61569;SDS011;47462;59.172;17.196;2022-11-20T03:14:40;3.33;;;1.67;;
61569;SDS011;47462;59.172;17.196;2022-11-20T03:17:06;1.65;;;1.40;;
61569;SDS011;47462;59.172;17.196;2022-11-20T03:19:32;1.97;;;1.73;;
61569;SDS011;47462;59.172;17.196;2022-11-20T03:21:59;1.38;;;1.27;;
61569;SDS011;47462;59.172;17.196;2022-11-20T03:24:25;4.35;;;1.63;;
61569;SDS011;47462;59.172;17.196;2022-11-20T03:26:50;3.35;;;1.48;;
61569;SDS011;47462;59.172;17.196;2022-11-20T03:29:16;2.23;;;1.43;;
61569;SDS011;47462;59.172;17.196;2022-11-20T03:31:41;2.07;;;1.50;;
61569;SDS011;47462;59.172;17.196;2022-11-20T03:34:07;2.00;;;1.40;;
61569;SDS011;47462;59.172;17.196;2022-11-20T03:36:34;2.92;;;1.58;;
61569;SDS011;47462;59.172;17.196;2022-11-20T03:39:02;3.17;;;1.80;;
61569;SDS011;47462;59.172;17.196;2022-11-20T03:41:28;3.13;;;1.60;;
61569;SDS011;47462;59.172;17.196;2022-11-20T03:43:56;1.20;;;1.10;;
61569;SDS011;47462;59.172;17.196;2022-11-20T03:46:22;1.25;;;1.10;;
61569;SDS011;47462;59.172;17.196;2022-11-20T03:48:48;1.58;;;1.40;;
61569;SDS011;47462;59.172;17.196;2022-11-20T03:51:17;1.92;;;1.27;;
61569;SDS011;47462;59.172;17.196;2022-11-20T03:53:45;1.40;;;1.10;;
61569;SDS011;47462;59.172;17.196;2022-11-20T03:56:11;1.90;;;1.20;;
61569;SDS011;47462;59.172;17.196;2022-11-20T03:58:38;1.33;;;1.23;;
61569;SDS011;47462;59.172;17.196;2022-11-20T04:01:08;2.25;;;1.40;;
61569;SDS011;47462;59.172;17.196;2022-11-20T04:03:36;2.40;;;1.48;;
61569;SDS011;47462;59.172;17.196;2022-11-20T04:06:03;2.35;;;1.23;;
61569;SDS011;47462;59.172;17.196;2022-11-20T04:08:33;1.42;;;1.10;;
61569;SDS011;47462;59.172;17.196;2022-11-20T04:11:10;2.85;;;1.45;;
61569;SDS011;47462;59.172;17.196;2022-11-20T04:13:45;2.17;;;1.35;;
61569;SDS011;47462;59.172;17.196;2022-11-20T04:16:12;1.65;;;1.20;;
61569;SDS011;47462;59.172;17.196;2022-11-20T04:18:37;1.23;;;1.10;;
61569;SDS011;47462;59.172;17.196;2022-11-20T04:21:04;1.67;;;1.05;;
61569;SDS011;47462;59.172;17.196;2022-11-20T04:23:30;1.77;;;1.35;;
61569;SDS011;47462;59.172;17.196;2022-11-20T04:26:03;2.60;;;1.30;;
61569;SDS011;47462;59.172;17.196;2022-11-20T04:28:32;1.50;;;1.30;;
61569;SDS011;47462;59.172;17.196;2022-11-20T04:31:02;2.10;;;1.50;;
61569;SDS011;47462;59.172;17.196;2022-11-20T04:33:32;6.07;;;1.20;;
61569;SDS011;47462;59.172;17.196;2022-11-20T04:36:10;2.40;;;1.23;;
61569;SDS011;47462;59.172;17.196;2022-11-20T04:38:38;3.92;;;1.42;;
61569;SDS011;47462;59.172;17.196;2022-11-20T04:41:04;1.45;;;1.30;;
61569;SDS011;47462;59.172;17.196;2022-11-20T04:43:32;1.73;;;1.15;;
61569;SDS011;47462;59.172;17.196;2022-11-20T04:45:59;2.95;;;1.60;;
61569;SDS011;47462;59.172;17.196;2022-11-20T04:48:25;2.65;;;1.25;;
61569;SDS011;47462;59.172;17.196;2022-11-20T04:50:52;1.98;;;1.00;;
61569;SDS011;47462;59.172;17.196;2022-11-20T04:53:20;1.27;;;1.10;;
61569;SDS011;47462;59.172;17.196;2022-11-20T04:55:46;2.97;;;1.23;;
61569;SDS011;47462;59.172;17.196;2022-11-20T04:58:12;1.20;;;1.10;;
61569;SDS011;47462;59.172;17.196;2022-11-20T05:00:39;2.20;;;1.50;;
61569;SDS011;47462;59.172;17.196;2022-11-20T05:03:05;2.38;;;1.30;;
61569;SDS011;47462;59.172;17.196;2022-11-20T05:05:33;2.90;;;1.23;;
61569;SDS011;47462;59.172;17.196;2022-11-20T05:07:59;1.73;;;1.30;;
61569;SDS011;47462;59.172;17.196;2022-11-20T05:10:25;1.20;;;1.10;;
61569;SDS011;47462;59.172;17.196;2022-11-20T05:12:51;1.08;;;1.05;;
61569;SDS011;47462;59.172;17.196;2022-11-20T05:15:17;1.77;;;1.20;;
61569;SDS011;47462;59.172;17.196;2022-11-20T05:17:49;1.30;;;1.03;;
61569;SDS011;47462;59.172;17.196;2022-11-20T05:20:16;1.10;;;1.08;;
61569;SDS011;47462;59.172;17.196;2022-11-20T05:22:42;2.42;;;1.10;;
61569;SDS011;47462;59.172;17.196;2022-11-20T05:25:08;1.33;;;0.95;;
61569;SDS011;47462;59.172;17.196;2022-11-20T05:27:34;2.15;;;0.90;;
61569;SDS011;47462;59.172;17.196;2022-11-20T05:29:59;1.87;;;1.10;;
61569;SDS011;47462;59.172;17.196;2022-11-20T05:32:24;1.30;;;1.10;;
61569;SDS011;47462;59.172;17.196;2022-11-20T05:34:50;1.30;;;1.20;;
61569;SDS011;47462;59.172;17.196;2022-11-20T05:39:42;1.40;;;1.02;;
61569;SDS011;47462;59.172;17.196;2022-11-20T05:42:07;1.83;;;1.03;;
61569;SDS011;47462;59.172;17.196;2022-11-20T05:44:51;1.42;;;1.33;;
61569;SDS011;47462;59.172;17.196;2022-11-20T05:47:17;1.80;;;1.30;;
61569;SDS011;47462;59.172;17.196;2022-11-20T05:49:42;1.20;;;0.97;;
61569;SDS011;47462;59.172;17.196;2022-11-20T05:52:07;0.87;;;0.80;;
61569;SDS011;47462;59.172;17.196;2022-11-20T05:54:33;1.10;;;1.00;;
61569;SDS011;47462;59.172;17.196;2022-11-20T05:56:58;1.63;;;1.27;;
61569;SDS011;47462;59.172;17.196;2022-11-20T05:59:24;1.27;;;1.08;;
61569;SDS011;47462;59.172;17.196;2022-11-20T06:01:50;1.30;;;1.20;;
61569;SDS011;47462;59.172;17.196;2022-11-20T06:04:15;2.23;;;0.90;;
61569;SDS011;47462;59.172;17.196;2022-11-20T06:06:40;1.60;;;0.97;;
61569;SDS011;47462;59.172;17.196;2022-11-20T06:09:06;1.20;;;1.10;;
61569;SDS011;47462;59.172;17.196;2022-11-20T06:11:31;1.00;;;0.90;;
61569;SDS011;47462;59.172;17.196;2022-11-20T06:13:57;1.03;;;0.97;;
61569;SDS011;47462;59.172;17.196;2022-11-20T06:16:22;2.87;;;1.17;;
61569;SDS011;47462;59.172;17.196;2022-11-20T06:18:48;2.23;;;1.53;;
61569;SDS011;47462;59.172;17.196;2022-11-20T06:21:17;3.57;;;1.10;;
61569;SDS011;47462;59.172;17.196;2022-11-20T06:23:47;1.20;;;1.10;;
61569;SDS011;47462;59.172;17.196;2022-11-20T06:28:39;1.30;;;1.20;;
61569;SDS011;47462;59.172;17.196;2022-11-20T06:31:05;1.42;;;1.15;;
61569;SDS011;47462;59.172;17.196;2022-11-20T06:35:57;0.90;;;0.82;;
61569;SDS011;47462;59.172;17.196;2022-11-20T06:38:27;1.30;;;1.02;;
61569;SDS011;47462;59.172;17.196;2022-11-20T06:40:53;2.28;;;1.00;;
61569;SDS011;47462;59.172;17.196;2022-11-20T06:43:18;1.33;;;0.93;;
61569;SDS011;47462;59.172;17.196;2022-11-20T06:45:44;1.73;;;1.17;;
61569;SDS011;47462;59.172;17.196;2022-11-20T06:48:09;1.50;;;0.90;;
61569;SDS011;47462;59.172;17.196;2022-11-20T06:50:37;3.47;;;1.27;;
61569;SDS011;47462;59.172;17.196;2022-11-20T06:53:04;1.08;;;0.98;;
61569;SDS011;47462;59.172;17.196;2022-11-20T06:55:30;0.93;;;0.93;;
61569;SDS011;47462;59.172;17.196;2022-11-20T06:57:56;1.23;;;1.00;;
61569;SDS011;47462;59.172;17.196;2022-11-20T07:00:23;2.92;;;0.80;;
61569;SDS011;47462;59.172;17.196;2022-11-20T07:02:48;1.13;;;1.02;;
61569;SDS011;47462;59.172;17.196;2022-11-20T07:05:14;3.33;;;1.00;;
61569;SDS011;47462;59.172;17.196;2022-11-20T07:07:40;0.85;;;0.85;;
61569;SDS011;47462;59.172;17.196;2022-11-20T07:10:06;0.90;;;0.80;;
61569;SDS011;47462;59.172;17.196;2022-11-20T07:12:32;0.80;;;0.70;;
61569;SDS011;47462;59.172;17.196;2022-11-20T07:14:57;1.85;;;1.02;;
61569;SDS011;47462;59.172;17.196;2022-11-20T07:17:23;1.13;;;0.90;;
61569;SDS011;47462;59.172;17.196;2022-11-20T07:19:48;2.00;;;0.63;;
61569;SDS011;47462;59.172;17.196;2022-11-20T07:22:13;2.53;;;1.20;;
61569;SDS011;47462;59.172;17.196;2022-11-20T07:24:39;3.23;;;1.90;;
61569;SDS011;47462;59.172;17.196;2022-11-20T07:27:04;2.40;;;0.80;;
61569;SDS011;47462;59.172;17.196;2022-11-20T07:29:30;0.93;;;0.77;;
61569;SDS011;47462;59.172;17.196;2022-11-20T07:31:55;1.20;;;0.93;;
61569;SDS011;47462;59.172;17.196;2022-11-20T07:34:21;0.90;;;0.80;;
61569;SDS011;47462;59.172;17.196;2022-11-20T07:36:47;0.75;;;0.75;;
61569;SDS011;47462;59.172;17.196;2022-11-20T07:39:14;3.63;;;1.95;;
61569;SDS011;47462;59.172;17.196;2022-11-20T07:41:39;2.03;;;1.33;;
61569;SDS011;47462;59.172;17.196;2022-11-20T07:44:04;0.93;;;0.90;;
61569;SDS011;47462;59.172;17.196;2022-11-20T07:46:30;0.90;;;0.90;;
61569;SDS011;47462;59.172;17.196;2022-11-20T07:48:55;1.23;;;0.90;;
61569;SDS011;47462;59.172;17.196;2022-11-20T07:51:21;1.20;;;1.10;;
61569;SDS011;47462;59.172;17.196;2022-11-20T07:53:47;0.85;;;0.85;;
61569;SDS011;47462;59.172;17.196;2022-11-20T07:56:12;1.20;;;0.70;;
61569;SDS011;47462;59.172;17.196;2022-11-20T07:58:39;1.75;;;1.00;;
61569;SDS011;47462;59.172;17.196;2022-11-20T08:01:05;0.75;;;0.75;;
61569;SDS011;47462;59.172;17.196;2022-11-20T08:03:32;0.60;;;0.60;;
61569;SDS011;47462;59.172;17.196;2022-11-20T08:06:01;1.10;;;0.95;;
61569;SDS011;47462;59.172;17.196;2022-11-20T08:08:27;0.65;;;0.65;;
61569;SDS011;47462;59.172;17.196;2022-11-20T08:10:52;1.00;;;0.70;;
61569;SDS011;47462;59.172;17.196;2022-11-20T08:13:38;2.58;;;0.90;;
61569;SDS011;47462;59.172;17.196;2022-11-20T08:16:22;1.13;;;0.80;;
61569;SDS011;47462;59.172;17.196;2022-11-20T08:18:47;0.70;;;0.70;;
61569;SDS011;47462;59.172;17.196;2022-11-20T08:21:14;3.15;;;1.60;;
61569;SDS011;47462;59.172;17.196;2022-11-20T08:23:40;1.63;;;1.00;;
61569;SDS011;47462;59.172;17.196;2022-11-20T08:26:05;1.00;;;0.70;;
61569;SDS011;47462;59.172;17.196;2022-11-20T08:28:31;2.07;;;1.30;;
61569;SDS011;47462;59.172;17.196;2022-11-20T08:31:00;1.15;;;1.05;;
61569;SDS011;47462;59.172;17.196;2022-11-20T08:33:26;2.88;;;0.98;;
61569;SDS011;47462;59.172;17.196;2022-11-20T08:35:51;1.55;;;0.98;;
61569;SDS011;47462;59.172;17.196;2022-11-20T08:38:17;1.03;;;0.70;;
61569;SDS011;47462;59.172;17.196;2022-11-20T08:40:42;0.70;;;0.60;;
61569;SDS011;47462;59.172;17.196;2022-11-20T08:43:28;1.17;;;0.88;;
61569;SDS011;47462;59.172;17.196;2022-11-20T08:45:55;0.90;;;0.83;;
61569;SDS011;47462;59.172;17.196;2022-11-20T08:48:21;1.02;;;0.60;;
61569;SDS011;47462;59.172;17.196;2022-11-20T08:50:46;1.70;;;0.80;;
61569;SDS011;47462;59.172;17.196;2022-11-20T08:53:12;3.50;;;1.30;;
61569;SDS011;47462;59.172;17.196;2022-11-20T08:55:37;0.73;;;0.70;;
61569;SDS011;47462;59.172;17.196;2022-11-20T08:58:04;1.02;;;0.95;;
61569;SDS011;47462;59.172;17.196;2022-11-20T09:00:31;0.93;;;0.73;;
61569;SDS011;47462;59.172;17.196;2022-11-20T09:05:23;0.75;;;0.75;;
61569;SDS011;47462;59.172;17.196;2022-11-20T09:07:49;1.02;;;0.60;;
61569;SDS011;47462;59.172;17.196;2022-11-20T09:10:14;1.70;;;0.67;;
61569;SDS011;47462;59.172;17.196;2022-11-20T09:15:06;0.88;;;0.40;;
61569;SDS011;47462;59.172;17.196;2022-11-20T09:17:32;0.85;;;0.80;;
61569;SDS011;47462;59.172;17.196;2022-11-20T09:19:57;0.50;;;0.50;;
61569;SDS011;47462;59.172;17.196;2022-11-20T09:22:23;1.17;;;0.65;;
61569;SDS011;47462;59.172;17.196;2022-11-20T09:24:49;1.10;;;0.90;;
61569;SDS011;47462;59.172;17.196;2022-11-20T09:27:14;0.87;;;0.70;;
61569;SDS011;47462;59.172;17.196;2022-11-20T09:29:44;0.98;;;0.73;;
61569;SDS011;47462;59.172;17.196;2022-11-20T09:32:09;0.83;;;0.57;;
61569;SDS011;47462;59.172;17.196;2022-11-20T09:34:35;0.53;;;0.53;;
61569;SDS011;47462;59.172;17.196;2022-11-20T09:37:00;1.98;;;0.98;;
61569;SDS011;47462;59.172;17.196;2022-11-20T09:39:26;1.57;;;1.47;;
61569;SDS011;47462;59.172;17.196;2022-11-20T09:41:55;1.97;;;1.63;;
61569;SDS011;47462;59.172;17.196;2022-11-20T09:52:59;1.58;;;0.52;;
61569;SDS011;47462;59.172;17.196;2022-11-20T09:55:35;1.17;;;0.60;;
61569;SDS011;47462;59.172;17.196;2022-11-20T10:00:30;1.05;;;0.57;;
61569;SDS011;47462;59.172;17.196;2022-11-20T10:05:35;1.20;;;0.90;;
61569;SDS011;47462;59.172;17.196;2022-11-20T10:11:13;1.92;;;0.80;;
61569;SDS011;47462;59.172;17.196;2022-11-20T10:13:59;0.55;;;0.50;;
61569;SDS011;47462;59.172;17.196;2022-11-20T10:22:06;0.40;;;0.40;;
61569;SDS011;47462;59.172;17.196;2022-11-20T10:24:59;1.33;;;0.70;;
61569;SDS011;47462;59.172;17.196;2022-11-20T10:30:01;0.70;;;0.60;;
61569;SDS011;47462;59.172;17.196;2022-11-20T10:32:42;1.10;;;0.70;;
61569;SDS011;47462;59.172;17.196;2022-11-20T10:37:58;1.70;;;0.60;;
61569;SDS011;47462;59.172;17.196;2022-11-20T10:42:57;2.92;;;0.70;;
61569;SDS011;47462;59.172;17.196;2022-11-20T10:50:40;0.88;;;0.60;;
61569;SDS011;47462;59.172;17.196;2022-11-20T10:53:28;0.88;;;0.77;;
61569;SDS011;47462;59.172;17.196;2022-11-20T10:56:05;1.25;;;0.60;;
61569;SDS011;47462;59.172;17.196;2022-11-20T10:59:00;2.00;;;0.60;;
61569;SDS011;47462;59.172;17.196;2022-11-20T11:01:39;0.88;;;0.52;;
61569;SDS011;47462;59.172;17.196;2022-11-20T11:04:07;1.00;;;0.45;;
61569;SDS011;47462;59.172;17.196;2022-11-20T11:06:56;1.95;;;0.90;;
61569;SDS011;47462;59.172;17.196;2022-11-20T11:09:33;0.77;;;0.65;;
61569;SDS011;47462;59.172;17.196;2022-11-20T11:12:11;1.05;;;0.50;;
61569;SDS011;47462;59.172;17.196;2022-11-20T11:14:50;1.33;;;0.60;;
61569;SDS011;47462;59.172;17.196;2022-11-20T11:17:20;1.00;;;0.35;;
61569;SDS011;47462;59.172;17.196;2022-11-20T11:19:45;1.70;;;0.90;;
61569;SDS011;47462;59.172;17.196;2022-11-20T11:22:21;1.90;;;0.40;;
61569;SDS011;47462;59.172;17.196;2022-11-20T11:24:52;0.40;;;0.40;;
61569;SDS011;47462;59.172;17.196;2022-11-20T11:27:18;0.47;;;0.47;;
61569;SDS011;47462;59.172;17.196;2022-11-20T11:29:43;0.80;;;0.80;;
61569;SDS011;47462;59.172;17.196;2022-11-20T11:34:39;0.63;;;0.52;;
61569;SDS011;47462;59.172;17.196;2022-11-20T11:37:10;1.63;;;0.70;;
61569;SDS011;47462;59.172;17.196;2022-11-20T11:39:49;3.75;;;0.50;;
61569;SDS011;47462;59.172;17.196;2022-11-20T11:42:16;0.73;;;0.50;;
61569;SDS011;47462;59.172;17.196;2022-11-20T11:44:44;0.65;;;0.45;;
61569;SDS011;47462;59.172;17.196;2022-11-20T11:47:35;0.60;;;0.50;;
61569;SDS011;47462;59.172;17.196;2022-11-20T11:52:46;1.00;;;0.47;;
61569;SDS011;47462;59.172;17.196;2022-11-20T11:55:30;1.50;;;0.55;;
61569;SDS011;47462;59.172;17.196;2022-11-20T12:00:36;0.55;;;0.50;;
61569;SDS011;47462;59.172;17.196;2022-11-20T12:03:13;3.55;;;2.10;;
61569;SDS011;47462;59.172;17.196;2022-11-20T12:05:44;1.63;;;1.23;;
61569;SDS011;47462;59.172;17.196;2022-11-20T12:10:50;4.78;;;2.55;;
61569;SDS011;47462;59.172;17.196;2022-11-20T12:16:01;2.70;;;1.05;;
61569;SDS011;47462;59.172;17.196;2022-11-20T12:18:28;0.77;;;0.60;;
61569;SDS011;47462;59.172;17.196;2022-11-20T12:26:14;3.78;;;1.45;;
61569;SDS011;47462;59.172;17.196;2022-11-20T12:31:44;0.90;;;0.70;;
61569;SDS011;47462;59.172;17.196;2022-11-20T12:34:43;1.35;;;0.60;;
61569;SDS011;47462;59.172;17.196;2022-11-20T12:40:06;1.67;;;1.35;;
61569;SDS011;47462;59.172;17.196;2022-11-20T12:56:43;2.58;;;2.13;;
61569;SDS011;47462;59.172;17.196;2022-11-20T13:01:51;0.70;;;0.70;;
61569;SDS011;47462;59.172;17.196;2022-11-20T13:07:01;4.00;;;2.90;;
61569;SDS011;47462;59.172;17.196;2022-11-20T13:09:29;5.57;;;3.90;;
61569;SDS011;47462;59.172;17.196;2022-11-20T13:14:24;2.80;;;1.90;;
61569;SDS011;47462;59.172;17.196;2022-11-20T13:19:52;1.45;;;0.82;;
61569;SDS011;47462;59.172;17.196;2022-11-20T13:22:29;0.80;;;0.60;;
61569;SDS011;47462;59.172;17.196;2022-11-20T13:25:09;0.93;;;0.60;;
61569;SDS011;47462;59.172;17.196;2022-11-20T13:27:35;0.60;;;0.60;;
61569;SDS011;47462;59.172;17.196;2022-11-20T13:30:02;0.38;;;0.38;;
61569;SDS011;47462;59.172;17.196;2022-11-20T13:32:47;0.50;;;0.50;;
61569;SDS011;47462;59.172;17.196;2022-11-20T13:35:23;0.85;;;0.40;;
61569;SDS011;47462;59.172;17.196;2022-11-20T13:37:59;1.20;;;0.77;;
61569;SDS011;47462;59.172;17.196;2022-11-20T13:40:36;0.60;;;0.60;;
61569;SDS011;47462;59.172;17.196;2022-11-20T13:43:22;1.30;;;0.52;;
61569;SDS011;47462;59.172;17.196;2022-11-20T13:45:58;1.77;;;0.80;;
61569;SDS011;47462;59.172;17.196;2022-11-20T13:48:26;0.50;;;0.50;;
61569;SDS011;47462;59.172;17.196;2022-11-20T13:59:40;0.70;;;0.40;;
61569;SDS011;47462;59.172;17.196;2022-11-20T14:02:18;0.93;;;0.70;;
61569;SDS011;47462;59.172;17.196;2022-11-20T14:04:46;0.73;;;0.73;;
61569;SDS011;47462;59.172;17.196;2022-11-20T14:07:14;2.05;;;1.33;;
61569;SDS011;47462;59.172;17.196;2022-11-20T14:09:49;0.60;;;0.50;;
61569;SDS011;47462;59.172;17.196;2022-11-20T14:12:20;0.60;;;0.55;;
61569;SDS011;47462;59.172;17.196;2022-11-20T14:14:48;1.05;;;0.60;;
61569;SDS011;47462;59.172;17.196;2022-11-20T14:19:43;0.77;;;0.53;;
61569;SDS011;47462;59.172;17.196;2022-11-20T14:24:39;0.60;;;0.60;;
61569;SDS011;47462;59.172;17.196;2022-11-20T14:27:04;1.63;;;0.80;;
61569;SDS011;47462;59.172;17.196;2022-11-20T14:29:33;0.57;;;0.50;;
61569;SDS011;47462;59.172;17.196;2022-11-20T14:32:01;0.60;;;0.60;;
61569;SDS011;47462;59.172;17.196;2022-11-20T14:34:28;1.90;;;0.90;;
61569;SDS011;47462;59.172;17.196;2022-11-20T14:37:00;0.75;;;0.70;;
61569;SDS011;47462;59.172;17.196;2022-11-20T14:41:58;2.50;;;0.80;;
61569;SDS011;47462;59.172;17.196;2022-11-20T14:44:33;0.57;;;0.57;;
61569;SDS011;47462;59.172;17.196;2022-11-20T14:47:00;1.25;;;0.80;;
61569;SDS011;47462;59.172;17.196;2022-11-20T14:49:28;1.02;;;1.02;;
61569;SDS011;47462;59.172;17.196;2022-11-20T14:51:59;0.80;;;0.80;;
61569;SDS011;47462;59.172;17.196;2022-11-20T14:54:26;2.05;;;0.85;;
61569;SDS011;47462;59.172;17.196;2022-11-20T14:56:57;1.00;;;0.90;;
61569;SDS011;47462;59.172;17.196;2022-11-20T14:59:29;2.38;;;1.58;;
61569;SDS011;47462;59.172;17.196;2022-11-20T15:04:22;1.48;;;1.10;;
61569;SDS011;47462;59.172;17.196;2022-11-20T15:06:52;1.70;;;1.10;;
61569;SDS011;47462;59.172;17.196;2022-11-20T15:09:19;1.25;;;1.00;;
61569;SDS011;47462;59.172;17.196;2022-11-20T15:11:52;3.93;;;1.10;;
61569;SDS011;47462;59.172;17.196;2022-11-20T15:14:18;3.20;;;0.88;;
61569;SDS011;47462;59.172;17.196;2022-11-20T15:16:43;2.80;;;1.00;;
61569;SDS011;47462;59.172;17.196;2022-11-20T15:19:15;1.67;;;0.90;;
61569;SDS011;47462;59.172;17.196;2022-11-20T15:21:43;1.30;;;1.00;;
61569;SDS011;47462;59.172;17.196;2022-11-20T15:24:09;1.07;;;1.03;;
61569;SDS011;47462;59.172;17.196;2022-11-20T15:26:34;1.48;;;0.82;;
61569;SDS011;47462;59.172;17.196;2022-11-20T15:29:02;2.03;;;1.38;;
61569;SDS011;47462;59.172;17.196;2022-11-20T15:31:27;1.05;;;0.95;;
61569;SDS011;47462;59.172;17.196;2022-11-20T15:33:53;1.83;;;0.90;;
61569;SDS011;47462;59.172;17.196;2022-11-20T15:36:18;3.22;;;1.20;;
61569;SDS011;47462;59.172;17.196;2022-11-20T15:38:43;2.17;;;1.00;;
61569;SDS011;47462;59.172;17.196;2022-11-20T15:41:09;1.60;;;1.10;;
61569;SDS011;47462;59.172;17.196;2022-11-20T15:43:35;1.10;;;1.00;;
61569;SDS011;47462;59.172;17.196;2022-11-20T15:46:09;3.27;;;0.83;;
61569;SDS011;47462;59.172;17.196;2022-11-20T15:48:39;1.35;;;1.25;;
61569;SDS011;47462;59.172;17.196;2022-11-20T15:51:27;1.52;;;1.08;;
61569;SDS011;47462;59.172;17.196;2022-11-20T15:53:54;1.42;;;1.17;;
61569;SDS011;47462;59.172;17.196;2022-11-20T15:58:45;3.20;;;1.25;;
61569;SDS011;47462;59.172;17.196;2022-11-20T16:01:11;3.20;;;1.33;;
61569;SDS011;47462;59.172;17.196;2022-11-20T16:03:38;6.20;;;1.40;;
61569;SDS011;47462;59.172;17.196;2022-11-20T16:06:04;6.93;;;1.30;;
61569;SDS011;47462;59.172;17.196;2022-11-20T16:08:29;1.67;;;1.00;;
61569;SDS011;47462;59.172;17.196;2022-11-20T16:10:55;3.23;;;1.17;;
61569;SDS011;47462;59.172;17.196;2022-11-20T16:13:20;2.10;;;1.17;;
61569;SDS011;47462;59.172;17.196;2022-11-20T16:16:05;1.60;;;1.25;;
61569;SDS011;47462;59.172;17.196;2022-11-20T16:18:36;3.00;;;1.30;;
61569;SDS011;47462;59.172;17.196;2022-11-20T16:21:02;1.35;;;1.15;;
61569;SDS011;47462;59.172;17.196;2022-11-20T16:23:28;3.03;;;1.10;;
61569;SDS011;47462;59.172;17.196;2022-11-20T16:25:53;2.17;;;0.93;;
61569;SDS011;47462;59.172;17.196;2022-11-20T16:28:19;1.65;;;1.30;;
61569;SDS011;47462;59.172;17.196;2022-11-20T16:30:45;2.45;;;1.20;;
61569;SDS011;47462;59.172;17.196;2022-11-20T16:33:11;1.20;;;1.08;;
61569;SDS011;47462;59.172;17.196;2022-11-20T16:35:39;1.40;;;0.93;;
61569;SDS011;47462;59.172;17.196;2022-11-20T16:38:04;1.70;;;0.90;;
61569;SDS011;47462;59.172;17.196;2022-11-20T16:40:30;2.08;;;1.30;;
61569;SDS011;47462;59.172;17.196;2022-11-20T16:42:55;1.30;;;1.20;;
61569;SDS011;47462;59.172;17.196;2022-11-20T16:47:47;5.57;;;1.70;;
61569;SDS011;47462;59.172;17.196;2022-11-20T16:50:13;1.53;;;1.27;;
61569;SDS011;47462;59.172;17.196;2022-11-20T16:52:38;1.90;;;1.20;;
61569;SDS011;47462;59.172;17.196;2022-11-20T16:55:03;1.70;;;1.40;;
61569;SDS011;47462;59.172;17.196;2022-11-20T16:57:30;1.50;;;1.30;;